createdAt,value
2023-01-02T00:01:42.361Z,7.85
2023-01-02T00:06:44.257Z,7.25
2023-01-02T00:11:45.861Z,8.75
2023-01-02T00:16:47.477Z,7.70
2023-01-02T00:21:49.075Z,7.75
2023-01-02T00:26:50.723Z,8.38
2023-01-02T00:31:52.346Z,7.80
2023-01-02T00:36:54.073Z,8.00
2023-01-02T00:41:55.730Z,7.90
2023-01-02T00:46:57.443Z,7.95
2023-01-02T00:51:59.132Z,7.60
2023-01-02T00:57:00.753Z,7.15
2023-01-02T01:02:02.680Z,6.90
2023-01-02T01:07:04.615Z,6.68
2023-01-02T01:12:06.288Z,6.43
2023-01-02T01:17:07.964Z,6.60
2023-01-02T01:22:09.586Z,5.93
2023-01-02T01:27:11.216Z,5.82
2023-01-02T01:32:13.895Z,6.13
2023-01-02T01:37:15.534Z,6.43
2023-01-02T01:42:18.387Z,5.68
2023-01-02T01:47:20.004Z,5.95
2023-01-02T01:52:28.795Z,6.25
2023-01-02T01:57:35.780Z,6.43
2023-01-02T02:02:42.442Z,7.10
2023-01-02T02:07:51.338Z,6.32
2023-01-02T02:12:53.023Z,7.47
2023-01-02T02:18:32.295Z,6.55
2023-01-02T02:24:11.287Z,7.20
2023-01-02T02:29:41.084Z,8.25
2023-01-02T02:35:03.908Z,7.50
2023-01-02T02:40:24.844Z,7.53
2023-01-02T02:45:42.016Z,7.47
2023-01-02T02:50:56.443Z,6.57
2023-01-02T02:56:01.528Z,7.32
2023-01-02T03:01:05.889Z,7.10
2023-01-02T03:06:12.815Z,7.90
2023-01-02T03:11:15.444Z,8.45
2023-01-02T03:16:24.387Z,8.32
2023-01-02T03:21:40.561Z,6.93
2023-01-02T03:26:50.758Z,7.80
2023-01-02T03:31:55.893Z,6.93
2023-01-02T03:37:07.287Z,5.80
2023-01-02T03:42:13.097Z,5.93
2023-01-02T03:47:33.608Z,5.05
2023-01-02T03:52:35.347Z,4.53
2023-01-02T03:58:22.144Z,3.13
2023-01-02T04:03:36.876Z,2.33
2023-01-02T04:08:45.813Z,1.98
2023-01-02T04:13:52.844Z,2.50
2023-01-02T04:19:08.506Z,2.88
2023-01-02T04:24:21.860Z,3.92
2023-01-02T04:29:23.563Z,4.35
2023-01-02T04:34:28.484Z,3.95
2023-01-02T04:39:30.755Z,2.42
2023-01-02T04:44:32.458Z,2.20
2023-01-02T04:49:35.965Z,1.60
2023-01-02T04:54:40.233Z,1.77
2023-01-02T04:59:41.870Z,1.35
2023-01-02T05:04:43.473Z,1.00
2023-01-02T05:09:45.296Z,1.00
2023-01-02T05:14:46.966Z,1.10
2023-01-02T05:19:48.603Z,0.90
2023-01-02T05:24:50.226Z,1.02
2023-01-02T05:29:51.882Z,0.40
2023-01-02T05:34:53.579Z,0.50
2023-01-02T05:39:55.179Z,1.13
2023-01-02T05:44:56.802Z,0.70
2023-01-02T05:49:58.470Z,0.63
2023-01-02T05:55:00.155Z,0.63
2023-01-02T06:00:02.382Z,0.50
2023-01-02T06:05:14.539Z,0.50
2023-01-02T06:10:16.289Z,0.45
2023-01-02T06:15:17.924Z,0.60
2023-01-02T06:20:19.519Z,0.50
2023-01-02T06:25:21.158Z,1.00
2023-01-02T06:30:22.830Z,2.60
2023-01-02T06:35:24.532Z,1.02
2023-01-02T06:40:26.120Z,1.20
2023-01-02T06:45:27.800Z,1.17
2023-01-02T06:50:34.895Z,1.38
2023-01-02T06:55:37.121Z,1.27
2023-01-02T07:00:38.874Z,0.90
2023-01-02T07:05:40.791Z,1.20
2023-01-02T07:10:44.553Z,1.20
2023-01-02T07:15:48.387Z,0.80
2023-01-02T07:20:54.754Z,0.70
2023-01-02T07:25:58.841Z,0.38
2023-01-02T07:31:04.703Z,0.47
2023-01-02T07:36:09.036Z,0.68
2023-01-02T07:41:19.338Z,0.50
2023-01-02T07:51:27.462Z,0.85
2023-01-02T07:56:30.284Z,0.88
2023-01-02T08:01:32.105Z,1.30
2023-01-02T08:06:34.496Z,1.05
2023-01-02T08:11:36.422Z,1.27
2023-01-02T08:16:38.125Z,1.45
2023-01-02T08:21:39.777Z,1.27
2023-01-02T08:26:41.465Z,1.40
2023-01-02T08:31:43.979Z,1.10
2023-01-02T08:36:45.814Z,0.88
2023-01-02T08:41:47.385Z,1.25
2023-01-02T08:46:49.005Z,2.25
2023-01-02T08:51:50.672Z,1.13
2023-01-02T08:56:52.423Z,1.38
2023-01-02T09:01:54.728Z,0.70
2023-01-02T09:06:56.472Z,1.17
2023-01-02T09:11:59.261Z,1.70
2023-01-02T09:17:00.987Z,1.05
2023-01-02T09:22:02.864Z,0.90
2023-01-02T09:27:04.499Z,1.65
2023-01-02T09:32:06.127Z,1.30
2023-01-02T09:37:07.817Z,1.80
2023-01-02T09:42:14.976Z,1.92
2023-01-02T09:47:21.836Z,1.42
2023-01-02T09:52:28.294Z,1.90
2023-01-02T09:57:30.073Z,1.50
2023-01-02T10:03:07.917Z,1.83
2023-01-02T10:08:32.973Z,1.60
2023-01-02T10:19:17.311Z,2.78
2023-01-02T10:24:34.628Z,2.28
2023-01-02T10:29:56.352Z,1.90
2023-01-02T10:35:07.348Z,2.33
2023-01-02T10:40:10.531Z,1.67
2023-01-02T10:45:16.479Z,1.30
2023-01-02T10:50:22.350Z,2.05
2023-01-02T10:55:35.230Z,1.55
2023-01-02T11:00:37.265Z,2.28
2023-01-02T11:05:50.559Z,1.42
2023-01-02T11:10:52.206Z,1.10
2023-01-02T11:15:59.509Z,1.33
2023-01-02T11:21:06.579Z,1.67
2023-01-02T11:26:20.371Z,1.33
2023-01-02T11:31:23.862Z,1.77
2023-01-02T11:36:27.696Z,1.45
2023-01-02T11:41:56.520Z,2.00
2023-01-02T11:46:59.956Z,2.10
2023-01-02T11:52:06.072Z,1.00
2023-01-02T11:57:19.234Z,1.25
2023-01-02T12:02:30.510Z,1.45
2023-01-02T12:07:44.241Z,1.35
2023-01-02T12:13:04.677Z,1.83
2023-01-02T12:18:15.474Z,1.33
2023-01-02T12:23:27.633Z,2.10
2023-01-02T12:28:32.336Z,1.90
2023-01-02T12:33:58.917Z,2.40
2023-01-02T12:39:28.559Z,1.95
2023-01-02T12:44:52.134Z,2.47
2023-01-02T12:50:13.876Z,2.30
2023-01-02T12:55:20.553Z,1.92
2023-01-02T13:00:52.276Z,1.92
2023-01-02T13:05:59.821Z,1.50
2023-01-02T13:11:05.861Z,2.95
2023-01-02T13:16:24.389Z,2.60
2023-01-02T13:21:37.260Z,2.40
2023-01-02T13:26:39.535Z,2.60
2023-01-02T13:31:47.426Z,2.50
2023-01-02T13:36:57.755Z,4.18
2023-01-02T13:42:21.344Z,3.92
2023-01-02T13:47:34.398Z,3.05
2023-01-02T13:52:37.839Z,3.13
2023-01-02T13:57:39.603Z,2.83
2023-01-02T14:02:41.692Z,2.78
2023-01-02T14:07:45.601Z,10.32
2023-01-02T14:12:53.737Z,1.60
2023-01-02T14:18:06.722Z,1.65
2023-01-02T14:23:11.122Z,1.83
2023-01-02T14:28:23.123Z,1.55
2023-01-02T14:33:34.148Z,1.70
2023-01-02T14:38:50.921Z,1.58
2023-01-02T14:43:53.023Z,1.83
2023-01-02T14:48:56.741Z,1.50
2023-01-02T14:54:02.421Z,1.52
2023-01-02T14:59:05.995Z,1.63
2023-01-02T15:04:23.015Z,1.30
2023-01-02T15:09:32.295Z,2.28
2023-01-02T15:14:33.937Z,2.93
2023-01-02T15:19:36.657Z,3.00
2023-01-02T15:24:39.287Z,2.22
2023-01-02T15:29:47.622Z,2.53
2023-01-02T15:34:50.587Z,5.17
2023-01-02T15:39:53.648Z,2.50
2023-01-02T15:45:13.886Z,2.55
2023-01-02T15:55:33.047Z,2.33
2023-01-02T16:00:37.711Z,2.53
2023-01-02T16:05:53.402Z,3.20
2023-01-02T16:11:01.572Z,2.72
2023-01-02T16:16:16.051Z,3.20
2023-01-02T16:21:20.049Z,2.45
2023-01-02T16:26:29.794Z,2.63
2023-01-02T16:31:50.713Z,2.17
2023-01-02T16:37:15.333Z,2.67
2023-01-02T16:42:37.775Z,3.17
2023-01-02T16:47:44.506Z,2.92
2023-01-02T16:52:49.667Z,2.35
2023-01-02T16:57:51.654Z,2.22
2023-01-02T17:02:56.237Z,2.85
2023-01-02T17:08:00.893Z,2.75
2023-01-02T17:13:03.959Z,2.70
2023-01-02T17:18:06.008Z,2.83
2023-01-02T17:23:07.948Z,3.00
2023-01-02T17:28:10.446Z,3.15
2023-01-02T17:33:12.527Z,3.47
2023-01-02T17:38:14.819Z,3.13
2023-01-02T17:43:16.579Z,3.40
2023-01-02T17:48:24.537Z,4.03
2023-01-02T17:53:27.095Z,5.05
2023-01-02T17:58:29.318Z,5.85
2023-01-02T18:03:31.052Z,4.90
2023-01-02T18:08:34.013Z,3.45
2023-01-02T18:13:43.561Z,5.40
2023-01-02T18:18:46.016Z,3.95
2023-01-02T18:23:52.550Z,4.13
2023-01-02T18:29:01.533Z,3.88
2023-01-02T18:39:44.617Z,2.75
2023-01-02T18:44:46.861Z,2.50
2023-01-02T18:49:48.520Z,2.10
2023-01-02T18:54:58.799Z,2.05
2023-01-02T19:00:22.452Z,2.78
2023-01-02T19:05:24.106Z,2.85
2023-01-02T19:10:37.013Z,4.30
2023-01-02T19:15:54.027Z,3.97
2023-01-02T19:21:11.615Z,3.58
2023-01-02T19:26:40.628Z,2.70
2023-01-02T19:31:56.703Z,3.45
2023-01-02T19:37:35.837Z,3.10
2023-01-02T19:42:39.022Z,3.38
2023-01-02T19:47:40.770Z,3.83
2023-01-02T19:52:42.769Z,3.70
2023-01-02T19:57:45.464Z,4.63
2023-01-02T20:02:52.314Z,4.38
2023-01-02T20:07:59.861Z,4.57
2023-01-02T20:13:04.242Z,4.97
2023-01-02T20:18:09.212Z,4.07
2023-01-02T20:23:10.943Z,3.95
2023-01-02T20:28:12.603Z,4.72
2023-01-02T20:33:14.433Z,3.40
2023-01-02T20:38:16.096Z,3.05
2023-01-02T20:43:17.821Z,3.60
2023-01-02T20:48:21.620Z,3.38
2023-01-02T20:53:23.237Z,3.22
2023-01-02T20:58:25.700Z,2.70
2023-01-02T21:03:27.457Z,4.22
2023-01-02T21:08:29.585Z,3.33
2023-01-02T21:13:31.306Z,3.38
2023-01-02T21:18:38.426Z,4.20
2023-01-02T21:23:41.310Z,3.63
2023-01-02T21:28:50.053Z,3.45
2023-01-02T21:33:51.712Z,4.05
2023-01-02T21:38:53.725Z,4.85
2023-01-02T21:43:55.449Z,3.55
2023-01-02T21:48:57.024Z,2.88
2023-01-02T21:53:58.690Z,2.67
2023-01-02T21:59:00.508Z,3.17
2023-01-02T22:04:03.702Z,3.33
2023-01-02T22:09:05.279Z,3.38
2023-01-02T22:14:07.461Z,1.88
2023-01-02T22:19:09.069Z,1.95
2023-01-02T22:24:10.837Z,1.40
2023-01-02T22:29:17.322Z,1.25
2023-01-02T22:34:21.220Z,1.67
2023-01-02T22:39:29.812Z,1.77
2023-01-02T22:44:31.472Z,1.58
2023-01-02T22:49:35.774Z,1.10
2023-01-02T22:54:37.410Z,1.00
2023-01-02T22:59:40.453Z,1.60
2023-01-02T23:04:42.500Z,2.72
2023-01-02T23:09:44.167Z,2.22
2023-01-02T23:14:46.360Z,2.70
2023-01-02T23:19:47.945Z,3.13
2023-01-02T23:24:49.768Z,2.65
2023-01-02T23:29:51.336Z,2.38
2023-01-02T23:34:53.142Z,2.08
2023-01-02T23:39:56.229Z,2.20
2023-01-02T23:44:57.877Z,1.88
2023-01-02T23:49:59.573Z,2.40
2023-01-02T23:55:01.251Z,3.03
